Time;durP1;ratioP1;P1;durP2;ratioP2;P2;SDS_P1;SDS_P2;PMS_P1;PMS_P2;Temp;Humidity;BMP_temperature;BMP_pressure;BME280_temperature;BME280_humidity;BME280_pressure;Samples;Min_cycle;Max_cycle;Signal;HPM_P1;HPM_P2
2023/07/22 00:01:36;;;;;;;5.00;4.67;;;15.90;99.90;;;;;;4983079;28;20454;-65
2023/07/22 00:04:04;;;;;;;4.20;3.90;;;16.00;99.90;;;;;;4979542;28;20574;-65
2023/07/22 00:06:31;;;;;;;4.30;4.00;;;15.90;99.90;;;;;;4975123;28;20452;-66
2023/07/22 00:08:58;;;;;;;5.03;4.73;;;15.90;99.90;;;;;;4985635;28;20979;-65
2023/07/22 00:11:26;;;;;;;4.20;3.97;;;15.80;99.90;;;;;;4974205;28;20535;-65
2023/07/22 00:13:53;;;;;;;5.23;4.83;;;15.80;99.90;;;;;;4980766;28;20560;-64
2023/07/22 00:16:20;;;;;;;4.83;4.53;;;15.80;99.90;;;;;;4981328;28;20885;-65
2023/07/22 00:18:48;;;;;;;4.27;3.87;;;15.80;99.90;;;;;;4973854;28;20545;-64
2023/07/22 00:21:15;;;;;;;7.53;4.50;;;15.80;99.90;;;;;;4988329;28;20487;-64
2023/07/22 00:23:42;;;;;;;4.30;3.90;;;15.80;99.90;;;;;;4982044;28;20497;-65
2023/07/22 00:26:10;;;;;;;4.37;4.07;;;15.80;99.90;;;;;;4979295;28;20462;-65
2023/07/22 00:28:39;;;;;;;8.43;4.27;;;15.80;99.90;;;;;;4974402;28;20451;-65
2023/07/22 00:31:06;;;;;;;5.13;4.80;;;15.80;99.90;;;;;;4985134;28;20455;-65
2023/07/22 00:33:33;;;;;;;3.83;3.53;;;15.80;99.90;;;;;;4974721;28;20480;-65
2023/07/22 00:36:00;;;;;;;4.73;3.70;;;15.80;99.90;;;;;;4978404;28;20448;-65
2023/07/22 00:38:27;;;;;;;4.60;4.30;;;15.80;99.90;;;;;;4981959;28;20460;-65
2023/07/22 00:40:54;;;;;;;4.40;4.00;;;15.80;99.90;;;;;;4972322;28;20463;-65
2023/07/22 00:43:20;;;;;;;5.87;5.37;;;15.80;99.90;;;;;;4984157;28;20482;-65
2023/07/22 00:45:49;;;;;;;4.73;4.33;;;15.80;99.90;;;;;;4976955;28;20448;-64
2023/07/22 00:48:17;;;;;;;4.30;4.00;;;15.80;99.90;;;;;;4975865;28;20458;-65
2023/07/22 00:50:44;;;;;;;4.43;3.90;;;15.80;99.90;;;;;;4984210;28;20456;-65
2023/07/22 00:53:11;;;;;;;6.40;4.27;;;15.80;99.90;;;;;;4972280;28;21227;-65
2023/07/22 00:55:40;;;;;;;4.37;3.97;;;15.80;99.90;;;;;;4982000;28;20540;-65
2023/07/22 00:58:07;;;;;;;4.67;4.37;;;15.80;99.90;;;;;;4978167;28;20976;-65
2023/07/22 01:00:34;;;;;;;4.80;4.40;;;15.80;99.90;;;;;;4988310;28;21004;-64
2023/07/22 01:03:02;;;;;;;5.10;4.23;;;15.80;99.90;;;;;;4971932;28;20469;-65
2023/07/22 01:05:29;;;;;;;4.87;4.57;;;15.80;99.90;;;;;;4988006;28;20613;-65
2023/07/22 01:07:56;;;;;;;5.30;4.83;;;15.80;99.90;;;;;;4978730;28;20453;-64
2023/07/22 01:10:23;;;;;;;4.53;4.20;;;15.80;99.90;;;;;;4981197;28;20466;-65
2023/07/22 01:12:50;;;;;;;3.43;3.13;;;15.80;99.90;;;;;;4972069;28;20468;-65
2023/07/22 01:15:17;;;;;;;4.37;3.70;;;15.80;99.90;;;;;;4984810;28;20450;-65
2023/07/22 01:17:45;;;;;;;4.90;4.10;;;15.80;99.90;;;;;;4975091;28;20456;-65
2023/07/22 01:20:14;;;;;;;5.40;4.27;;;15.90;99.90;;;;;;4988142;28;20451;-65
2023/07/22 01:22:43;;;;;;;4.00;3.70;;;15.80;99.90;;;;;;4972967;28;20540;-65
2023/07/22 01:25:12;;;;;;;8.93;4.47;;;15.90;99.90;;;;;;4984505;28;20608;-65
2023/07/22 01:27:39;;;;;;;4.47;4.07;;;15.90;99.90;;;;;;4974157;28;21042;-65
2023/07/22 01:30:09;;;;;;;5.47;4.20;;;15.90;99.90;;;;;;4988078;28;20899;-65
2023/07/22 01:32:36;;;;;;;5.97;5.27;;;15.90;99.90;;;;;;4974099;28;20567;-64
2023/07/22 01:35:03;;;;;;;4.67;4.27;;;15.90;99.90;;;;;;4974570;28;20448;-65
2023/07/22 01:37:31;;;;;;;3.93;3.63;;;15.90;99.90;;;;;;4987913;28;20457;-65
2023/07/22 01:39:58;;;;;;;3.70;3.50;;;15.90;99.90;;;;;;4988701;28;20456;-65
2023/07/22 01:42:26;;;;;;;3.80;3.50;;;15.90;99.90;;;;;;4988613;28;20481;-65
2023/07/22 01:44:54;;;;;;;5.43;4.93;;;15.90;99.90;;;;;;4988395;28;20495;-65
2023/07/22 01:47:21;;;;;;;5.13;4.73;;;15.90;99.90;;;;;;4987056;28;20904;-65
2023/07/22 01:49:48;;;;;;;4.00;3.70;;;15.90;99.90;;;;;;4988614;28;20532;-66
2023/07/22 01:52:14;;;;;;;4.33;4.03;;;15.90;99.90;;;;;;4988525;28;20883;-65
2023/07/22 01:54:41;;;;;;;4.30;4.00;;;15.90;99.90;;;;;;4988395;28;20457;-65
2023/07/22 01:57:08;;;;;;;4.40;4.13;;;15.90;99.90;;;;;;4987545;28;20467;-65
2023/07/22 01:59:36;;;;;;;3.70;3.43;;;15.90;99.90;;;;;;4988236;28;20548;-64
2023/07/22 02:02:03;;;;;;;4.27;3.93;;;15.90;99.90;;;;;;4988165;28;20976;-64
2023/07/22 02:04:31;;;;;;;3.87;3.57;;;15.90;99.90;;;;;;4988165;28;20495;-65
2023/07/22 02:06:57;;;;;;;3.97;3.67;;;15.90;99.90;;;;;;4987507;28;20546;-65
2023/07/22 02:09:25;;;;;;;5.00;4.70;;;15.90;99.90;;;;;;4988213;28;20518;-64
2023/07/22 02:11:53;;;;;;;4.40;4.00;;;15.90;99.90;;;;;;4988208;28;20982;-66
2023/07/22 02:14:20;;;;;;;5.00;4.03;;;15.90;99.90;;;;;;4999342;28;20937;-65
2023/07/22 02:16:48;;;;;;;4.47;4.07;;;15.90;99.90;;;;;;5006962;28;20543;-65
2023/07/22 02:19:15;;;;;;;3.83;3.63;;;15.90;99.90;;;;;;5007812;28;20455;-65
2023/07/22 02:21:42;;;;;;;4.47;4.17;;;15.90;99.90;;;;;;5007523;28;20900;-65
2023/07/22 02:24:09;;;;;;;3.27;3.10;;;15.90;99.90;;;;;;5007493;28;20480;-65
2023/07/22 02:26:36;;;;;;;4.57;4.27;;;15.90;99.90;;;;;;5006906;28;20457;-65
2023/07/22 02:29:03;;;;;;;6.93;4.00;;;15.90;99.90;;;;;;5007678;28;21028;-64
2023/07/22 02:31:30;;;;;;;4.43;4.13;;;15.90;99.90;;;;;;5007794;28;20541;-64
2023/07/22 02:33:58;;;;;;;4.93;4.37;;;15.80;99.90;;;;;;5007773;28;20476;-65
2023/07/22 02:36:25;;;;;;;4.17;3.97;;;15.80;99.90;;;;;;5006753;28;20540;-64
2023/07/22 02:38:52;;;;;;;3.87;3.50;;;15.80;99.90;;;;;;5007675;28;20547;-64
2023/07/22 02:41:18;;;;;;;4.33;4.00;;;15.80;99.90;;;;;;4996587;28;20457;-64
2023/07/22 02:43:45;;;;;;;3.47;3.27;;;15.80;99.90;;;;;;5000985;28;20560;-65
2023/07/22 02:46:12;;;;;;;4.80;3.80;;;15.80;99.90;;;;;;4998719;28;20490;-65
2023/07/22 02:48:40;;;;;;;4.20;3.90;;;15.80;99.90;;;;;;5001808;28;20450;-65
2023/07/22 02:51:10;;;;;;;4.03;3.73;;;15.80;99.90;;;;;;5011062;28;20468;-65
2023/07/22 02:53:38;;;;;;;4.30;3.90;;;15.70;99.90;;;;;;5011340;28;20901;-65
2023/07/22 02:56:06;;;;;;;4.47;4.07;;;15.70;99.90;;;;;;5010259;28;20445;-65
2023/07/22 02:58:33;;;;;;;5.10;4.07;;;15.70;99.90;;;;;;5010669;28;20948;-65
2023/07/22 03:01:00;;;;;;;4.17;3.70;;;15.70;99.90;;;;;;5010706;28;20834;-64
2023/07/22 03:03:27;;;;;;;4.30;4.00;;;15.70;99.90;;;;;;5001422;28;20570;-65
2023/07/22 03:05:54;;;;;;;5.30;5.00;;;15.60;99.90;;;;;;4990701;28;20503;-64
2023/07/22 03:08:22;;;;;;;4.20;3.80;;;15.60;99.90;;;;;;4990839;28;20541;-65
2023/07/22 03:10:49;;;;;;;3.63;3.43;;;15.60;99.90;;;;;;4991255;28;20497;-64
2023/07/22 03:13:17;;;;;;;4.23;3.87;;;15.50;99.90;;;;;;4991157;28;20651;-65
2023/07/22 03:15:44;;;;;;;3.53;3.33;;;15.50;99.90;;;;;;4990862;28;20544;-65
2023/07/22 03:18:12;;;;;;;4.30;3.90;;;15.50;99.90;;;;;;4990369;28;20554;-64
2023/07/22 03:20:39;;;;;;;5.40;3.23;;;15.40;99.90;;;;;;4991021;28;20541;-64
2023/07/22 03:23:07;;;;;;;4.97;4.47;;;15.40;99.90;;;;;;4990790;28;20595;-65
2023/07/22 03:25:36;;;;;;;4.30;4.00;;;15.40;99.90;;;;;;4990570;28;20573;-65
2023/07/22 03:28:05;;;;;;;4.40;4.10;;;15.40;99.90;;;;;;4990295;28;20504;-65
2023/07/22 03:30:33;;;;;;;4.73;4.00;;;15.30;99.90;;;;;;4990919;28;20509;-65
2023/07/22 03:33:00;;;;;;;4.83;4.43;;;15.30;99.90;;;;;;4990598;28;20479;-65
2023/07/22 03:35:27;;;;;;;4.67;3.77;;;15.20;99.90;;;;;;4990537;28;20486;-65
2023/07/22 03:37:55;;;;;;;4.00;3.60;;;15.20;99.90;;;;;;4989935;28;20550;-65
2023/07/22 03:40:26;;;;;;;5.03;3.40;;;15.20;99.90;;;;;;4990739;28;20459;-65
2023/07/22 03:42:57;;;;;;;5.30;4.90;;;15.10;99.90;;;;;;4990773;28;20478;-65
2023/07/22 03:45:24;;;;;;;5.77;4.13;;;15.10;99.90;;;;;;4990417;28;20527;-65
2023/07/22 03:47:52;;;;;;;5.73;4.20;;;15.00;99.90;;;;;;4988038;28;20456;-64
2023/07/22 03:50:20;;;;;;;5.17;4.67;;;14.90;99.90;;;;;;4990321;28;20467;-64
2023/07/22 03:52:46;;;;;;;4.47;4.17;;;14.90;99.90;;;;;;4990245;28;20487;-65
2023/07/22 03:55:13;;;;;;;5.33;4.20;;;14.80;99.90;;;;;;4989524;28;20527;-64
2023/07/22 03:57:40;;;;;;;4.97;3.63;;;14.80;99.90;;;;;;4989727;28;20534;-66
2023/07/22 04:00:10;;;;;;;4.33;3.80;;;14.70;99.90;;;;;;4995508;28;20455;-65
2023/07/22 04:02:37;;;;;;;4.43;4.13;;;14.70;99.90;;;;;;5001537;28;20475;-65
2023/07/22 04:05:05;;;;;;;6.20;4.53;;;14.60;99.90;;;;;;5009536;28;20457;-65
2023/07/22 04:07:32;;;;;;;4.73;4.33;;;14.60;99.90;;;;;;5008941;28;20455;-64
2023/07/22 04:09:59;;;;;;;5.33;4.83;;;14.60;99.90;;;;;;5009628;28;20467;-65
2023/07/22 04:12:25;;;;;;;5.50;4.93;;;14.50;99.90;;;;;;5009418;28;20480;-65
2023/07/22 04:14:52;;;;;;;4.27;3.97;;;14.50;99.90;;;;;;5009373;28;21183;-64
2023/07/22 04:17:20;;;;;;;8.13;5.40;;;14.50;99.90;;;;;;5008583;28;20454;-65
2023/07/22 04:19:47;;;;;;;4.70;4.30;;;14.50;99.90;;;;;;5009380;28;20653;-65
2023/07/22 04:22:14;;;;;;;5.20;4.83;;;14.50;99.90;;;;;;5009050;28;20909;-65
2023/07/22 04:24:41;;;;;;;5.43;4.63;;;14.40;99.90;;;;;;5009413;28;20458;-66
2023/07/22 04:27:08;;;;;;;7.00;4.00;;;14.40;99.90;;;;;;5008572;28;20457;-64
2023/07/22 04:29:36;;;;;;;6.57;4.60;;;14.40;99.90;;;;;;5009293;28;20781;-65
2023/07/22 04:32:03;;;;;;;4.50;4.20;;;14.40;99.90;;;;;;5009095;28;20501;-65
2023/07/22 04:34:32;;;;;;;5.80;5.30;;;14.40;99.90;;;;;;5009081;28;20456;-64
2023/07/22 04:36:59;;;;;;;4.87;4.47;;;14.40;99.90;;;;;;5008495;28;20588;-65
2023/07/22 04:39:26;;;;;;;5.33;4.73;;;14.40;99.90;;;;;;5009175;28;20454;-65
2023/07/22 04:41:53;;;;;;;4.80;4.37;;;14.40;99.90;;;;;;5009045;28;20541;-65
2023/07/22 04:44:20;;;;;;;5.13;4.20;;;14.50;99.90;;;;;;5009002;28;20573;-65
2023/07/22 04:46:47;;;;;;;8.60;4.67;;;14.50;99.90;;;;;;5006356;28;20874;-65
2023/07/22 04:49:17;;;;;;;5.60;4.20;;;14.60;99.90;;;;;;5008654;28;20541;-65
2023/07/22 04:51:45;;;;;;;6.63;4.30;;;14.60;99.90;;;;;;5008790;28;20458;-65
2023/07/22 04:54:12;;;;;;;6.50;4.90;;;14.70;99.90;;;;;;5008570;28;20474;-65
2023/07/22 04:56:39;;;;;;;9.30;4.90;;;14.70;99.90;;;;;;5007937;28;20487;-64
2023/07/22 04:59:06;;;;;;;5.53;4.57;;;14.80;99.90;;;;;;5008631;28;20459;-64
2023/07/22 05:01:33;;;;;;;4.43;4.13;;;14.80;99.90;;;;;;5008902;28;20458;-66
2023/07/22 05:04:00;;;;;;;5.30;4.50;;;14.90;99.90;;;;;;5008742;28;20567;-64
2023/07/22 05:06:29;;;;;;;8.53;5.67;;;14.90;99.90;;;;;;5007918;28;20446;-64
2023/07/22 05:08:57;;;;;;;4.60;4.20;;;15.00;99.90;;;;;;5008780;28;20457;-64
2023/07/22 05:11:24;;;;;;;4.80;4.40;;;15.00;99.90;;;;;;5008529;28;20449;-65
2023/07/22 05:13:51;;;;;;;5.40;4.90;;;15.10;99.90;;;;;;5008281;28;20479;-64
2023/07/22 05:16:18;;;;;;;5.60;5.20;;;15.10;99.90;;;;;;5007785;28;20497;-65
2023/07/22 05:18:45;;;;;;;4.90;4.57;;;15.20;99.90;;;;;;5008484;28;20488;-65
2023/07/22 05:21:12;;;;;;;5.70;5.20;;;15.30;99.90;;;;;;5008123;28;20470;-65
2023/07/22 05:23:38;;;;;;;4.67;4.23;;;15.30;99.90;;;;;;5008195;28;20485;-65
2023/07/22 05:26:07;;;;;;;5.70;5.30;;;15.30;99.90;;;;;;5007522;28;20518;-65
2023/07/22 05:28:34;;;;;;;4.47;4.23;;;15.40;99.90;;;;;;5008373;28;20482;-65
2023/07/22 05:31:01;;;;;;;5.03;4.63;;;15.40;99.90;;;;;;5008416;28;21079;-66
2023/07/22 05:33:27;;;;;;;7.50;6.90;;;15.50;99.90;;;;;;5008313;28;21790;-65
2023/07/22 05:35:54;;;;;;;5.80;5.40;;;15.50;99.90;;;;;;5007582;28;20486;-65
2023/07/22 05:38:21;;;;;;;6.20;5.63;;;15.60;99.90;;;;;;5007861;28;21157;-65
2023/07/22 05:40:48;;;;;;;5.17;4.70;;;15.60;99.90;;;;;;5007925;28;20454;-65
2023/07/22 05:43:16;;;;;;;5.77;5.23;;;15.70;99.90;;;;;;5008194;28;20476;-65
2023/07/22 05:45:43;;;;;;;8.00;4.77;;;15.70;99.90;;;;;;5008139;28;20855;-65
2023/07/22 05:48:10;;;;;;;6.10;5.50;;;15.70;99.90;;;;;;5005724;28;20461;-65
2023/07/22 05:50:37;;;;;;;5.10;4.70;;;15.80;99.90;;;;;;5008115;28;20459;-65
2023/07/22 05:53:04;;;;;;;4.83;4.53;;;15.80;99.90;;;;;;5007994;28;20479;-65
2023/07/22 05:55:31;;;;;;;6.37;5.93;;;15.90;99.90;;;;;;5007975;28;21830;-65
2023/07/22 05:57:58;;;;;;;6.90;5.27;;;15.90;99.90;;;;;;5007515;28;20549;-66
2023/07/22 06:00:26;;;;;;;5.33;5.00;;;16.00;99.90;;;;;;5008105;28;20463;-65
2023/07/22 06:02:53;;;;;;;9.17;6.47;;;16.10;99.90;;;;;;5008062;28;20478;-65
2023/07/22 06:05:20;;;;;;;6.77;6.23;;;16.30;99.90;;;;;;5007249;28;20454;-66
2023/07/22 06:07:47;;;;;;;5.73;4.60;;;16.40;99.90;;;;;;5007161;28;20457;-66
2023/07/22 06:10:13;;;;;;;5.23;4.83;;;16.50;99.90;;;;;;5007847;28;20452;-65
2023/07/22 06:12:41;;;;;;;5.47;5.03;;;16.50;99.90;;;;;;5008055;28;20487;-65
2023/07/22 06:15:09;;;;;;;6.00;5.17;;;16.60;99.90;;;;;;5007991;28;20534;-65
2023/07/22 06:17:37;;;;;;;7.00;6.00;;;16.80;99.90;;;;;;5005487;28;20567;-65
2023/07/22 06:20:05;;;;;;;3.97;3.63;;;16.90;99.90;;;;;;5011604;28;20905;-66
2023/07/22 06:22:32;;;;;;;4.67;4.37;;;17.00;99.90;;;;;;5011443;28;20524;-65
2023/07/22 06:24:59;;;;;;;6.40;4.57;;;17.20;99.90;;;;;;5010174;28;20542;-65
2023/07/22 06:27:26;;;;;;;5.00;4.60;;;17.20;99.90;;;;;;4980989;28;20473;-65
2023/07/22 06:29:52;;;;;;;5.57;5.13;;;17.30;99.90;;;;;;4977803;28;20458;-66
2023/07/22 06:32:19;;;;;;;5.50;5.03;;;17.40;99.90;;;;;;4972588;28;20593;-65
2023/07/22 06:34:48;;;;;;;5.93;5.17;;;17.40;99.90;;;;;;4972562;28;20541;-65
2023/07/22 06:37:15;;;;;;;5.17;4.67;;;17.40;99.90;;;;;;4971645;28;20530;-65
2023/07/22 06:39:42;;;;;;;4.37;4.07;;;17.50;99.90;;;;;;4972427;28;20465;-66
2023/07/22 06:42:09;;;;;;;5.67;5.17;;;17.50;99.90;;;;;;4972132;28;20468;-66
2023/07/22 06:44:35;;;;;;;5.23;4.93;;;17.60;99.90;;;;;;4971971;28;20466;-66
2023/07/22 06:47:02;;;;;;;5.10;4.63;;;17.60;99.90;;;;;;4971324;28;20545;-65
2023/07/22 06:49:29;;;;;;;4.90;4.50;;;17.70;99.90;;;;;;4972093;28;20499;-65
2023/07/22 06:51:57;;;;;;;4.70;4.40;;;17.80;99.90;;;;;;4971987;28;20541;-65
2023/07/22 06:54:24;;;;;;;4.67;4.37;;;17.80;99.90;;;;;;4972280;28;20508;-66
2023/07/22 06:56:51;;;;;;;5.47;4.97;;;17.90;99.90;;;;;;4971253;28;20499;-65
2023/07/22 06:59:18;;;;;;;8.13;7.33;;;18.00;99.90;;;;;;4971781;28;20545;-66
2023/07/22 07:01:45;;;;;;;5.97;5.37;;;18.00;99.90;;;;;;4972105;28;20464;-66
2023/07/22 07:04:12;;;;;;;5.10;4.70;;;18.10;99.90;;;;;;4971706;28;20482;-65
2023/07/22 07:06:39;;;;;;;5.27;4.87;;;18.20;99.90;;;;;;4971040;28;20546;-65
2023/07/22 07:09:07;;;;;;;4.90;4.60;;;18.20;99.90;;;;;;4971819;28;20463;-65
2023/07/22 07:11:34;;;;;;;5.17;4.77;;;18.30;99.90;;;;;;4971794;28;21235;-65
2023/07/22 07:14:01;;;;;;;6.00;4.67;;;18.50;99.90;;;;;;4971730;28;20485;-65
2023/07/22 07:16:31;;;;;;;5.50;5.10;;;18.70;99.90;;;;;;4970974;28;20491;-66
2023/07/22 07:18:58;;;;;;;5.57;5.17;;;18.80;99.90;;;;;;4971874;28;20502;-66
2023/07/22 07:21:25;;;;;;;5.60;5.10;;;19.10;99.90;;;;;;4988209;28;20466;-66
2023/07/22 07:23:53;;;;;;;4.43;4.00;;;19.20;99.90;;;;;;4991536;28;20896;-65
2023/07/22 07:26:22;;;;;;;4.67;3.93;;;19.20;99.90;;;;;;4993724;28;21121;-67
2023/07/22 07:28:50;;;;;;;6.50;4.70;;;19.40;99.90;;;;;;4998001;28;20494;-66
2023/07/22 07:31:17;;;;;;;4.87;4.47;;;19.50;99.90;;;;;;5000542;28;20474;-66
2023/07/22 07:33:44;;;;;;;4.70;4.20;;;19.60;99.90;;;;;;4998997;28;20593;-66
2023/07/22 07:36:11;;;;;;;6.00;5.43;;;19.80;99.90;;;;;;4997875;28;20882;-66
2023/07/22 07:38:38;;;;;;;5.40;5.00;;;20.00;99.90;;;;;;5001835;28;20458;-65
2023/07/22 07:41:08;;;;;;;4.73;4.30;;;20.10;99.90;;;;;;4998941;28;20451;-66
2023/07/22 07:43:36;;;;;;;4.13;3.70;;;20.30;99.90;;;;;;4999390;28;21004;-66
2023/07/22 07:46:18;;;;;;;4.80;4.50;;;20.30;99.90;;;;;;4994703;28;20460;-65
2023/07/22 07:48:46;;;;;;;4.67;4.37;;;20.50;99.90;;;;;;4998458;28;20466;-66
2023/07/22 07:51:14;;;;;;;6.83;4.20;;;20.70;99.90;;;;;;4989182;28;20988;-65
2023/07/22 07:53:42;;;;;;;5.37;4.83;;;20.80;99.90;;;;;;4998613;28;20493;-66
2023/07/22 07:56:09;;;;;;;4.83;4.43;;;20.70;99.90;;;;;;4989592;28;20497;-65
2023/07/22 07:58:38;;;;;;;4.90;4.40;;;20.80;99.90;;;;;;4993095;28;20472;-65
2023/07/22 08:01:05;;;;;;;4.87;4.47;;;20.80;99.90;;;;;;5003454;28;20544;-66
2023/07/22 08:03:33;;;;;;;5.17;4.70;;;20.90;99.90;;;;;;4992944;28;20605;-65
2023/07/22 08:06:00;;;;;;;5.30;4.97;;;21.00;99.90;;;;;;5000647;28;21023;-65
2023/07/22 08:08:27;;;;;;;4.67;4.27;;;21.00;99.90;;;;;;4995886;28;20492;-66
2023/07/22 08:11:01;;;;;;;4.13;3.70;;;20.90;99.90;;;;;;4991439;28;20524;-66
2023/07/22 08:13:30;;;;;;;4.70;4.30;;;20.90;99.90;;;;;;4989792;28;20570;-65
2023/07/22 08:15:59;;;;;;;4.87;4.47;;;20.80;99.90;;;;;;4995247;28;20980;-65
2023/07/22 08:18:26;;;;;;;4.57;4.17;;;20.80;99.90;;;;;;4993225;28;20644;-66
2023/07/22 08:20:53;;;;;;;4.80;4.37;;;20.80;99.90;;;;;;4999299;28;20533;-66
2023/07/22 08:23:20;;;;;;;5.10;4.60;;;20.80;99.90;;;;;;4994739;28;20654;-66
2023/07/22 08:25:47;;;;;;;4.23;3.83;;;20.90;99.90;;;;;;4997318;28;20496;-66
2023/07/22 08:28:14;;;;;;;4.63;4.07;;;20.90;99.90;;;;;;5000210;28;20472;-66
2023/07/22 08:30:42;;;;;;;4.17;3.80;;;21.00;99.90;;;;;;4998722;28;20543;-65
2023/07/22 08:33:11;;;;;;;5.20;4.80;;;21.00;99.90;;;;;;5000126;28;20511;-64
2023/07/22 08:35:39;;;;;;;3.80;3.23;;;21.00;99.90;;;;;;4999937;28;20460;-66
2023/07/22 08:38:06;;;;;;;4.60;4.20;;;21.00;99.90;;;;;;5001747;28;20519;-67
2023/07/22 08:40:36;;;;;;;3.93;3.50;;;21.00;99.90;;;;;;4996633;28;20465;-66
2023/07/22 08:43:04;;;;;;;4.17;3.77;;;21.00;99.90;;;;;;4990473;28;20567;-65
2023/07/22 08:45:34;;;;;;;4.23;3.93;;;21.00;99.90;;;;;;4997616;28;20930;-66
2023/07/22 08:48:06;;;;;;;3.93;3.63;;;21.10;99.90;;;;;;5007677;28;20598;-66
2023/07/22 08:50:39;;;;;;;3.60;3.30;;;21.30;99.90;;;;;;5008612;28;20462;-65
2023/07/22 08:53:06;;;;;;;3.50;3.30;;;21.40;99.40;;;;;;4996222;28;20559;-65
2023/07/22 08:55:34;;;;;;;3.73;3.43;;;21.50;99.70;;;;;;5005617;28;20566;-66
2023/07/22 08:58:02;;;;;;;4.27;3.87;;;21.60;98.30;;;;;;5007207;28;20488;-66
2023/07/22 09:00:29;;;;;;;3.80;3.50;;;21.70;99.20;;;;;;5008406;28;20467;-65
2023/07/22 09:02:56;;;;;;;4.67;4.13;;;21.80;99.40;;;;;;5008269;28;20561;-66
2023/07/22 09:05:23;;;;;;;3.77;3.50;;;22.00;99.40;;;;;;5008294;28;20548;-65
2023/07/22 09:07:52;;;;;;;3.40;3.10;;;22.20;98.90;;;;;;5007316;28;20580;-66
2023/07/22 09:10:21;;;;;;;4.43;3.77;;;22.40;97.10;;;;;;5008092;28;20450;-67
2023/07/22 09:12:48;;;;;;;4.37;3.97;;;22.50;96.60;;;;;;5007172;28;20475;-66
2023/07/22 09:15:16;;;;;;;3.60;3.37;;;22.80;96.70;;;;;;4999921;28;20491;-66
2023/07/22 09:17:44;;;;;;;3.63;3.40;;;23.10;97.60;;;;;;5007242;28;20526;-66
2023/07/22 09:20:13;;;;;;;4.00;3.70;;;23.30;94.90;;;;;;5007632;28;20458;-66
2023/07/22 09:22:44;;;;;;;5.20;3.83;;;23.50;96.30;;;;;;5007728;28;20518;-66
2023/07/22 09:25:20;;;;;;;5.43;3.53;;;23.50;94.80;;;;;;5007652;28;20539;-66
2023/07/22 09:27:47;;;;;;;5.80;4.20;;;23.40;94.00;;;;;;5007104;28;20990;-66
2023/07/22 09:30:26;;;;;;;4.60;4.30;;;23.30;92.80;;;;;;5007949;28;21020;-67
2023/07/22 09:32:54;;;;;;;3.83;3.53;;;23.10;93.00;;;;;;5007815;28;20850;-65
2023/07/22 09:35:22;;;;;;;4.20;3.80;;;23.00;95.20;;;;;;5000374;28;20457;-66
2023/07/22 09:37:49;;;;;;;4.30;4.00;;;22.80;92.60;;;;;;4998142;28;20908;-66
2023/07/22 09:40:20;;;;;;;5.67;4.30;;;22.60;93.90;;;;;;4996354;28;20462;-66
2023/07/22 09:42:48;;;;;;;4.80;3.30;;;22.60;93.70;;;;;;5007086;28;20477;-66
2023/07/22 09:45:15;;;;;;;4.40;3.57;;;22.60;94.20;;;;;;5007812;28;20545;-66
2023/07/22 09:47:42;;;;;;;3.93;3.63;;;22.60;93.60;;;;;;5006820;28;20544;-66
2023/07/22 09:50:13;;;;;;;3.80;3.50;;;22.50;93.90;;;;;;5007122;28;20557;-66
2023/07/22 09:52:46;;;;;;;4.43;3.43;;;22.40;94.20;;;;;;4999745;28;20480;-66
2023/07/22 09:55:13;;;;;;;3.10;2.80;;;22.40;94.20;;;;;;4990635;28;20459;-66
2023/07/22 09:57:45;;;;;;;3.43;3.20;;;22.40;95.20;;;;;;4990866;28;20493;-65
2023/07/22 10:00:14;;;;;;;4.10;3.70;;;22.40;95.90;;;;;;4991179;28;20464;-66
2023/07/22 10:02:42;;;;;;;3.40;3.17;;;22.40;95.00;;;;;;4991829;28;20989;-66
2023/07/22 10:05:14;;;;;;;3.83;3.53;;;22.40;96.40;;;;;;4991615;28;20451;-67
2023/07/22 10:07:44;;;;;;;5.70;3.60;;;22.40;95.50;;;;;;4999193;28;20453;-66
2023/07/22 10:10:12;;;;;;;3.57;3.37;;;22.40;96.00;;;;;;5005306;28;20462;-67
2023/07/22 10:12:42;;;;;;;3.77;3.50;;;22.30;94.80;;;;;;5011112;28;20478;-66
2023/07/22 10:15:10;;;;;;;3.63;3.40;;;22.20;94.10;;;;;;5011223;28;20462;-66
2023/07/22 10:17:37;;;;;;;3.73;3.33;;;22.20;94.50;;;;;;5010597;28;20604;-66
2023/07/22 10:20:07;;;;;;;3.53;3.23;;;22.20;94.90;;;;;;5011222;28;20576;-66
2023/07/22 10:22:37;;;;;;;4.83;3.47;;;22.20;94.60;;;;;;5011110;28;20483;-66
2023/07/22 10:25:07;;;;;;;3.43;3.20;;;22.30;94.50;;;;;;5011005;28;20456;-66
2023/07/22 10:27:35;;;;;;;4.00;3.43;;;22.40;93.70;;;;;;5010128;28;20553;-66
2023/07/22 10:30:04;;;;;;;3.33;3.03;;;22.50;93.90;;;;;;5011103;28;20459;-66
2023/07/22 10:32:35;;;;;;;3.40;3.10;;;22.60;93.10;;;;;;5011082;28;20565;-66
2023/07/22 10:35:03;;;;;;;3.50;3.30;;;22.90;94.50;;;;;;5010991;28;20461;-65
2023/07/22 10:37:33;;;;;;;3.73;3.27;;;23.00;91.40;;;;;;5010161;28;20587;-67
2023/07/22 10:40:02;;;;;;;3.60;3.30;;;23.20;93.00;;;;;;5001930;28;20466;-66
2023/07/22 10:42:32;;;;;;;3.20;3.00;;;23.30;92.40;;;;;;4999545;28;20558;-66
2023/07/22 10:45:03;;;;;;;3.17;2.97;;;23.40;90.60;;;;;;4996444;28;20486;-66
2023/07/22 10:47:34;;;;;;;3.40;3.10;;;23.40;92.20;;;;;;4988204;28;20454;-65
2023/07/22 10:50:07;;;;;;;4.50;3.40;;;23.30;89.20;;;;;;4996708;28;20969;-65
2023/07/22 10:52:46;;;;;;;4.67;2.70;;;23.30;91.00;;;;;;4984081;28;20486;-66
2023/07/22 10:55:17;;;;;;;3.77;3.37;;;23.20;90.20;;;;;;4999068;28;20473;-66
2023/07/22 10:57:52;;;;;;;3.60;3.30;;;23.30;91.00;;;;;;4999300;28;20569;-65
2023/07/22 11:00:22;;;;;;;5.10;3.27;;;23.10;87.10;;;;;;4990292;28;20946;-66
2023/07/22 11:03:04;;;;;;;4.20;3.80;;;23.00;89.80;;;;;;4998916;28;20496;-64
2023/07/22 11:05:49;;;;;;;4.30;2.97;;;23.10;89.00;;;;;;4993038;28;20575;-66
2023/07/22 11:08:16;;;;;;;3.90;3.50;;;23.20;90.00;;;;;;4986122;28;20454;-66
2023/07/22 11:10:54;;;;;;;4.60;4.23;;;23.30;89.60;;;;;;4992555;28;20836;-65
2023/07/22 11:13:28;;;;;;;3.47;3.00;;;23.40;90.10;;;;;;4993580;28;20484;-65
2023/07/22 11:15:58;;;;;;;4.00;3.60;;;23.60;90.10;;;;;;4997278;28;20455;-67
2023/07/22 11:18:37;;;;;;;2.90;2.70;;;23.70;88.00;;;;;;4988905;28;20495;-66
2023/07/22 11:21:08;;;;;;;3.93;3.63;;;23.90;89.80;;;;;;4995153;28;20464;-66
2023/07/22 11:23:36;;;;;;;2.93;2.73;;;24.00;90.70;;;;;;4985040;28;20562;-66
2023/07/22 11:26:03;;;;;;;6.30;2.77;;;24.20;87.60;;;;;;4994420;28;20443;-66
2023/07/22 11:28:31;;;;;;;5.90;3.10;;;24.20;87.10;;;;;;4997415;28;20451;-65
2023/07/22 11:31:00;;;;;;;3.70;3.40;;;24.30;86.60;;;;;;4994553;28;20939;-67
2023/07/22 11:33:38;;;;;;;3.50;3.30;;;24.30;81.70;;;;;;4997804;28;20568;-66
2023/07/22 11:36:05;;;;;;;4.73;4.33;;;24.30;82.30;;;;;;4995440;28;20913;-65
2023/07/22 11:38:32;;;;;;;3.33;3.03;;;24.30;84.80;;;;;;4996815;28;20491;-65
2023/07/22 11:41:00;;;;;;;3.90;3.60;;;24.40;86.30;;;;;;4995986;28;20543;-66
2023/07/22 11:43:27;;;;;;;4.00;3.70;;;24.40;83.60;;;;;;4994867;28;20510;-66
2023/07/22 11:45:54;;;;;;;3.50;3.30;;;24.50;82.70;;;;;;4992663;28;20446;-67
2023/07/22 11:48:23;;;;;;;3.53;3.23;;;24.80;85.70;;;;;;4992823;28;20956;-66
2023/07/22 11:50:50;;;;;;;5.07;3.20;;;25.00;83.30;;;;;;4995342;28;20483;-66
2023/07/22 11:53:17;;;;;;;3.97;3.60;;;25.00;83.10;;;;;;4993649;28;20480;-66
2023/07/22 11:55:44;;;;;;;3.17;2.97;;;25.00;81.40;;;;;;4994518;28;20462;-66
2023/07/22 11:58:11;;;;;;;3.80;3.50;;;24.80;79.50;;;;;;4992223;28;20501;-66
2023/07/22 12:00:38;;;;;;;3.70;3.40;;;24.80;83.10;;;;;;4986626;28;20566;-65
2023/07/22 12:03:08;;;;;;;4.50;4.20;;;24.90;79.80;;;;;;4992122;28;20555;-66
2023/07/22 12:05:37;;;;;;;3.33;2.97;;;25.10;81.90;;;;;;4997569;28;20453;-66
2023/07/22 12:08:06;;;;;;;3.50;3.20;;;25.10;81.10;;;;;;4995998;28;20455;-65
2023/07/22 12:10:34;;;;;;;4.93;2.83;;;25.30;80.30;;;;;;5002291;28;20469;-66
2023/07/22 12:13:02;;;;;;;3.37;2.87;;;25.40;79.80;;;;;;4990113;28;20487;-65
2023/07/22 12:15:29;;;;;;;3.23;2.97;;;25.60;81.80;;;;;;4983397;28;20487;-66
2023/07/22 12:17:57;;;;;;;3.07;2.80;;;25.50;69.20;;;;;;4984917;28;20582;-66
2023/07/22 12:20:26;;;;;;;3.00;2.80;;;25.40;70.80;;;;;;4987150;28;20474;-66
2023/07/22 12:22:55;;;;;;;3.90;3.13;;;25.40;72.60;;;;;;4993487;28;20491;-66
2023/07/22 12:25:22;;;;;;;2.90;2.70;;;25.10;68.00;;;;;;4997214;28;20460;-66
2023/07/22 12:27:49;;;;;;;3.30;3.00;;;25.00;71.60;;;;;;4993812;28;20461;-65
2023/07/22 12:30:17;;;;;;;3.33;3.07;;;24.90;74.80;;;;;;5000118;28;20468;-66
2023/07/22 12:32:44;;;;;;;4.37;2.57;;;24.80;74.70;;;;;;4996140;28;20479;-66
2023/07/22 12:35:13;;;;;;;2.90;2.70;;;24.80;77.90;;;;;;4995497;28;20532;-66
2023/07/22 12:37:40;;;;;;;4.00;3.30;;;24.80;78.40;;;;;;4992809;28;20491;-66
2023/07/22 12:40:11;;;;;;;3.40;3.17;;;24.80;73.60;;;;;;5000094;28;20545;-65
2023/07/22 12:42:38;;;;;;;4.03;3.70;;;24.70;76.50;;;;;;4994035;28;20476;-66
2023/07/22 12:45:07;;;;;;;5.20;3.20;;;24.70;78.60;;;;;;4997919;28;20537;-66
2023/07/22 12:47:34;;;;;;;3.73;3.43;;;24.90;79.00;;;;;;4998813;28;20478;-65
2023/07/22 12:50:01;;;;;;;6.07;3.57;;;25.30;78.60;;;;;;4996813;28;20463;-66
2023/07/22 12:52:28;;;;;;;3.40;2.90;;;25.60;74.10;;;;;;4991504;28;20567;-66